Wetterdaten: Sonntag, 28.06.2015
Datum Zeit Auen-Temp. Temp gefhlt Luftfeuchte Luftdruck Regen Wind Richtung Richtung Taupunkt Windben
28.06.2015 00:00 13,3 C 13,2 C 90 % 1023,2 hPa 0,0 mm 0,0 km/h (0 Bft) SO 135 11,7 C 0,0 km/h (0 Bft)
28.06.2015 00:05 13,3 C 13,2 C 90 % 1023,2 hPa 0,0 mm 0,0 km/h (0 Bft) SO 135 11,7 C 0,0 km/h (0 Bft)
28.06.2015 00:10 13,4 C 13,3 C 90 % 1023,2 hPa 0,0 mm 0,8 km/h (0 Bft) S 180 11,8 C 4,1 km/h (1 Bft)
28.06.2015 00:15 13,4 C 13,3 C 90 % 1023,3 hPa 0,0 mm 1,6 km/h (1 Bft) SW 225 11,8 C 4,1 km/h (1 Bft)
28.06.2015 00:20 13,1 C 13,1 C 89 % 1023,3 hPa 0,0 mm 0,8 km/h (0 Bft) NW 315 11,3 C 6,7 km/h (2 Bft)
28.06.2015 00:25 13,1 C 13,0 C 89 % 1023,3 hPa 0,0 mm 0,8 km/h (0 Bft) SW 225 11,3 C 0,0 km/h (0 Bft)
28.06.2015 00:30 13,1 C 13,0 C 89 % 1023,3 hPa 0,0 mm 3,4 km/h (1 Bft) SW 225 11,3 C 11,4 km/h (2 Bft)
28.06.2015 00:35 13,2 C 13,1 C 90 % 1023,4 hPa 0,0 mm 6,0 km/h (2 Bft) NO 45 11,6 C 9,6 km/h (2 Bft)
28.06.2015 00:40 13,4 C 13,2 C 90 % 1023,4 hPa 0,0 mm 8,0 km/h (2 Bft) SW 225 11,8 C 14,2 km/h (3 Bft)
28.06.2015 00:45 13,5 C 13,4 C 90 % 1023,4 hPa 0,0 mm 8,0 km/h (2 Bft) S-SW 202 11,9 C 9,3 km/h (2 Bft)
28.06.2015 00:50 13,5 C 13,4 C 90 % 1023,4 hPa 0,0 mm 8,8 km/h (2 Bft) S 180 11,9 C 12,4 km/h (3 Bft)
28.06.2015 00:55 13,6 C 13,4 C 90 % 1023,4 hPa 0,0 mm 8,8 km/h (2 Bft) S 180 12,0 C 5,7 km/h (1 Bft)
28.06.2015 01:00 13,5 C 13,3 C 89 % 1023,4 hPa 0,0 mm 7,3 km/h (2 Bft) SW 225 11,7 C 6,2 km/h (2 Bft)
28.06.2015 01:05 13,3 C 13,2 C 89 % 1023,4 hPa 0,0 mm 7,0 km/h (2 Bft) S 180 11,5 C 9,6 km/h (2 Bft)
28.06.2015 01:10 13,4 C 13,3 C 89 % 1023,4 hPa 0,0 mm 8,0 km/h (2 Bft) SW 225 11,6 C 15,3 km/h (3 Bft)
28.06.2015 01:15 13,5 C 13,4 C 89 % 1023,4 hPa 0,0 mm 8,5 km/h (2 Bft) SW 225 11,7 C 11,9 km/h (2 Bft)
28.06.2015 01:20 13,5 C 13,4 C 89 % 1023,4 hPa 0,0 mm 7,5 km/h (2 Bft) SW 225 11,7 C 9,8 km/h (2 Bft)
28.06.2015 01:25 13,5 C 13,3 C 89 % 1023,4 hPa 0,0 mm 8,0 km/h (2 Bft) SW 225 11,7 C 11,1 km/h (2 Bft)
28.06.2015 01:30 13,6 C 13,5 C 89 % 1023,4 hPa 0,0 mm 7,5 km/h (2 Bft) S-SW 202 11,8 C 4,9 km/h (1 Bft)
28.06.2015 01:35 13,6 C 13,5 C 89 % 1023,5 hPa 0,0 mm 6,0 km/h (2 Bft) N-NW 337 11,8 C 10,6 km/h (2 Bft)
28.06.2015 01:40 13,6 C 13,5 C 89 % 1023,5 hPa 0,0 mm 3,9 km/h (1 Bft) W 270 11,8 C 6,0 km/h (2 Bft)
28.06.2015 01:45 13,6 C 13,5 C 89 % 1023,5 hPa 0,0 mm 3,4 km/h (1 Bft) SW 225 11,8 C 5,7 km/h (1 Bft)
28.06.2015 01:50 13,6 C 13,5 C 89 % 1023,5 hPa 0,0 mm 4,1 km/h (1 Bft) S 180 11,8 C 7,8 km/h (2 Bft)
28.06.2015 01:55 13,7 C 13,6 C 89 % 1023,5 hPa 0,0 mm 6,0 km/h (2 Bft) S-SW 202 11,9 C 9,1 km/h (2 Bft)
28.06.2015 02:00 13,6 C 13,5 C 89 % 1023,5 hPa 0,0 mm 5,2 km/h (1 Bft) O-SO 112 11,8 C 0,0 km/h (0 Bft)
28.06.2015 02:05 13,6 C 13,5 C 89 % 1023,5 hPa 0,0 mm 4,4 km/h (1 Bft) S 180 11,8 C 10,6 km/h (2 Bft)
28.06.2015 02:10 13,7 C 13,6 C 89 % 1023,5 hPa 0,0 mm 4,4 km/h (1 Bft) O-SO 112 11,9 C 0,0 km/h (0 Bft)
28.06.2015 02:15 13,5 C 13,5 C 89 % 1023,3 hPa 0,0 mm 3,6 km/h (1 Bft) S 180 11,7 C 0,0 km/h (0 Bft)
28.06.2015 02:20 13,4 C 13,3 C 89 % 1023,3 hPa 0,0 mm 1,3 km/h (1 Bft) SO 135 11,6 C 0,0 km/h (0 Bft)
28.06.2015 02:25 13,3 C 13,2 C 89 % 1023,3 hPa 0,0 mm 1,0 km/h (0 Bft) O-SO 112 11,5 C 0,0 km/h (0 Bft)
28.06.2015 02:30 13,2 C 13,1 C 89 % 1023,3 hPa 0,0 mm 0,3 km/h (0 Bft) O-SO 112 11,4 C 0,0 km/h (0 Bft)
28.06.2015 02:35 13,1 C 13,0 C 89 % 1023,3 hPa 0,0 mm 0,3 km/h (0 Bft) O-SO 112 11,3 C 0,0 km/h (0 Bft)
28.06.2015 02:40 13,0 C 12,9 C 89 % 1023,3 hPa 0,0 mm 0,3 km/h (0 Bft) W-SW 247 11,2 C 4,9 km/h (1 Bft)
28.06.2015 02:45 13,0 C 12,9 C 89 % 1023,3 hPa 0,0 mm 1,8 km/h (1 Bft) SW 225 11,2 C 5,7 km/h (1 Bft)
28.06.2015 02:50 13,0 C 12,9 C 89 % 1023,3 hPa 0,0 mm 2,8 km/h (1 Bft) S 180 11,2 C 0,0 km/h (0 Bft)
28.06.2015 02:55 12,9 C 12,8 C 91 % 1023,3 hPa 0,0 mm 1,8 km/h (1 Bft) S 180 11,5 C 0,0 km/h (0 Bft)
28.06.2015 03:00 12,9 C 12,8 C 91 % 1023,3 hPa 0,0 mm 0,8 km/h (0 Bft) S-SW 202 11,5 C 4,1 km/h (1 Bft)
28.06.2015 03:05 12,9 C 12,8 C 91 % 1023,3 hPa 0,0 mm 1,0 km/h (0 Bft) SW 225 11,5 C 5,2 km/h (1 Bft)
28.06.2015 03:10 13,0 C 12,9 C 89 % 1023,3 hPa 0,0 mm 3,6 km/h (1 Bft) S-SO 157 11,2 C 5,7 km/h (1 Bft)
28.06.2015 03:15 13,0 C 12,9 C 89 % 1023,3 hPa 0,0 mm 5,2 km/h (1 Bft) S-SW 202 11,2 C 6,7 km/h (2 Bft)
28.06.2015 03:20 13,2 C 13,1 C 89 % 1023,3 hPa 0,0 mm 6,2 km/h (2 Bft) W-SW 247 11,4 C 10,6 km/h (2 Bft)
28.06.2015 03:25 13,2 C 13,1 C 89 % 1023,3 hPa 0,0 mm 6,7 km/h (2 Bft) SW 225 11,4 C 10,4 km/h (2 Bft)
28.06.2015 03:30 13,3 C 13,2 C 89 % 1023,3 hPa 0,0 mm 7,5 km/h (2 Bft) S 180 11,5 C 12,2 km/h (2 Bft)
28.06.2015 03:35 13,2 C 13,2 C 89 % 1023,2 hPa 0,0 mm 7,5 km/h (2 Bft) S 180 11,4 C 7,0 km/h (2 Bft)
28.06.2015 03:40 13,1 C 13,1 C 88 % 1023,2 hPa 0,0 mm 7,5 km/h (2 Bft) S 180 11,2 C 14,0 km/h (3 Bft)
28.06.2015 03:45 13,3 C 13,3 C 88 % 1023,2 hPa 0,0 mm 7,8 km/h (2 Bft) S 180 11,4 C 12,9 km/h (3 Bft)
28.06.2015 03:50 13,4 C 13,4 C 88 % 1023,2 hPa 0,0 mm 8,0 km/h (2 Bft) W-SW 247 11,5 C 12,9 km/h (3 Bft)
28.06.2015 03:55 13,5 C 13,5 C 88 % 1023,2 hPa 0,0 mm 7,8 km/h (2 Bft) S 180 11,6 C 9,8 km/h (2 Bft)
28.06.2015 04:00 13,5 C 13,6 C 87 % 1023,2 hPa 0,0 mm 8,3 km/h (2 Bft) SW 225 11,4 C 10,4 km/h (2 Bft)
28.06.2015 04:05 13,5 C 13,5 C 87 % 1023,2 hPa 0,0 mm 7,0 km/h (2 Bft) W-SW 247 11,4 C 10,4 km/h (2 Bft)
28.06.2015 04:10 13,5 C 13,5 C 86 % 1023,2 hPa 0,0 mm 7,0 km/h (2 Bft) SW 225 11,2 C 8,3 km/h (2 Bft)
28.06.2015 04:15 13,4 C 13,5 C 85 % 1023,1 hPa 0,0 mm 7,8 km/h (2 Bft) S 180 10,9 C 7,3 km/h (2 Bft)
28.06.2015 04:20 13,2 C 13,4 C 85 % 1023,1 hPa 0,0 mm 8,3 km/h (2 Bft) SW 225 10,7 C 11,1 km/h (2 Bft)
28.06.2015 04:25 13,1 C 13,2 C 84 % 1023,1 hPa 0,0 mm 9,1 km/h (2 Bft) S 180 10,5 C 14,8 km/h (3 Bft)
28.06.2015 04:30 12,9 C 13,0 C 85 % 1023,1 hPa 0,0 mm 7,8 km/h (2 Bft) S 180 10,4 C 3,4 km/h (1 Bft)
28.06.2015 04:35 12,6 C 12,8 C 85 % 1023,1 hPa 0,0 mm 6,7 km/h (2 Bft) SW 225 10,1 C 10,6 km/h (2 Bft)
28.06.2015 04:40 12,6 C 12,6 C 85 % 1023,1 hPa 0,0 mm 5,4 km/h (1 Bft) W-SW 247 10,1 C 7,3 km/h (2 Bft)
28.06.2015 04:45 12,4 C 12,4 C 86 % 1023,1 hPa 0,0 mm 5,2 km/h (1 Bft) SW 225 10,1 C 9,3 km/h (2 Bft)
28.06.2015 04:50 12,1 C 12,0 C 86 % 1023,1 hPa 0,0 mm 3,9 km/h (1 Bft) S 180 9,8 C 4,4 km/h (1 Bft)
28.06.2015 04:55 12,2 C 12,1 C 86 % 1023,3 hPa 0,0 mm 4,9 km/h (1 Bft) S 180 9,9 C 9,3 km/h (2 Bft)
28.06.2015 05:00 12,1 C 12,0 C 86 % 1023,3 hPa 0,0 mm 6,0 km/h (2 Bft) S 180 9,8 C 3,6 km/h (1 Bft)
28.06.2015 05:05 12,1 C 12,0 C 86 % 1023,3 hPa 0,0 mm 6,0 km/h (2 Bft) S 180 9,8 C 4,7 km/h (1 Bft)
28.06.2015 05:10 12,0 C 12,0 C 87 % 1023,3 hPa 0,0 mm 4,7 km/h (1 Bft) S 180 9,9 C 4,7 km/h (1 Bft)
28.06.2015 05:15 11,7 C 11,7 C 87 % 1023,1 hPa 0,0 mm 2,8 km/h (1 Bft) O-SO 112 9,6 C 0,0 km/h (0 Bft)
28.06.2015 05:20 11,4 C 11,4 C 87 % 1023,1 hPa 0,0 mm 1,0 km/h (0 Bft) S-SO 157 9,3 C 3,6 km/h (1 Bft)
28.06.2015 05:25 11,4 C 11,4 C 88 % 1023,1 hPa 0,0 mm 0,8 km/h (0 Bft) O-SO 112 9,5 C 0,0 km/h (0 Bft)
28.06.2015 05:30 11,4 C 11,3 C 88 % 1023,1 hPa 0,0 mm 0,5 km/h (0 Bft) O-NO 67 9,5 C 0,0 km/h (0 Bft)
28.06.2015 05:35 11,4 C 11,3 C 88 % 1023,1 hPa 0,0 mm 0,0 km/h (0 Bft) O-NO 67 9,5 C 0,0 km/h (0 Bft)
28.06.2015 05:40 11,5 C 11,4 C 88 % 1023,1 hPa 0,0 mm 0,0 km/h (0 Bft) W-NW 292 9,6 C 0,0 km/h (0 Bft)
28.06.2015 05:45 11,5 C 11,4 C 88 % 1023,1 hPa 0,0 mm 0,0 km/h (0 Bft) SW 225 9,6 C 0,0 km/h (0 Bft)
28.06.2015 05:50 11,7 C 11,6 C 88 % 1023,1 hPa 0,0 mm 0,8 km/h (0 Bft) S 180 9,8 C 0,0 km/h (0 Bft)
28.06.2015 05:55 11,9 C 11,8 C 89 % 1023,1 hPa 0,0 mm 1,0 km/h (0 Bft) SO 135 10,1 C 5,4 km/h (1 Bft)
28.06.2015 06:00 11,9 C 11,9 C 89 % 1023,1 hPa 0,0 mm 0,5 km/h (0 Bft) S 180 10,1 C 0,0 km/h (0 Bft)
28.06.2015 06:05 12,0 C 11,9 C 88 % 1023,1 hPa 0,0 mm 0,5 km/h (0 Bft) S-SO 157 10,1 C 0,0 km/h (0 Bft)
28.06.2015 06:10 11,9 C 11,9 C 89 % 1023,1 hPa 0,0 mm 0,3 km/h (0 Bft) W 270 10,1 C 0,0 km/h (0 Bft)
28.06.2015 06:15 11,9 C 12,0 C 86 % 1023,2 hPa 0,0 mm 0,0 km/h (0 Bft) NW 315 9,6 C 0,0 km/h (0 Bft)
28.06.2015 06:20 12,0 C 12,1 C 85 % 1023,2 hPa 0,0 mm 0,0 km/h (0 Bft) NW 315 9,6 C 0,0 km/h (0 Bft)
28.06.2015 06:25 12,0 C 12,2 C 86 % 1023,2 hPa 0,0 mm 0,0 km/h (0 Bft) NW 315 9,7 C 0,0 km/h (0 Bft)
28.06.2015 06:30 12,2 C 12,8 C 86 % 1023,2 hPa 0,0 mm 0,0 km/h (0 Bft) N-NO 22 9,9 C 0,0 km/h (0 Bft)
28.06.2015 06:35 12,4 C 13,1 C 86 % 1023,1 hPa 0,0 mm 0,0 km/h (0 Bft) N-NO 22 10,1 C 0,0 km/h (0 Bft)
28.06.2015 06:40 12,7 C 14,3 C 86 % 1023,1 hPa 0,0 mm 0,0 km/h (0 Bft) W 270 10,4 C 0,0 km/h (0 Bft)
28.06.2015 06:45 12,9 C 14,9 C 86 % 1023,1 hPa 0,0 mm 0,0 km/h (0 Bft) SW 225 10,6 C 3,6 km/h (1 Bft)
28.06.2015 06:50 13,2 C 15,3 C 85 % 1023,1 hPa 0,0 mm 1,0 km/h (0 Bft) SW 225 10,7 C 0,0 km/h (0 Bft)
28.06.2015 06:55 13,3 C 15,4 C 85 % 1023,3 hPa 0,0 mm 1,3 km/h (1 Bft) S-SO 157 10,8 C 0,0 km/h (0 Bft)
28.06.2015 07:00 13,5 C 15,6 C 85 % 1023,3 hPa 0,0 mm 0,3 km/h (0 Bft) W-SW 247 11,0 C 0,0 km/h (0 Bft)
28.06.2015 07:05 13,6 C 15,6 C 85 % 1023,3 hPa 0,0 mm 0,0 km/h (0 Bft) SO 135 11,1 C 0,0 km/h (0 Bft)
28.06.2015 07:10 13,6 C 15,5 C 85 % 1023,3 hPa 0,0 mm 0,0 km/h (0 Bft) NO 45 11,1 C 0,0 km/h (0 Bft)
28.06.2015 07:15 13,7 C 15,6 C 85 % 1023,2 hPa 0,0 mm 0,0 km/h (0 Bft) S 180 11,2 C 0,0 km/h (0 Bft)
28.06.2015 07:20 14,1 C 17,3 C 85 % 1023,2 hPa 0,0 mm 2,1 km/h (1 Bft) W-SW 247 11,6 C 7,5 km/h (2 Bft)
28.06.2015 07:25 14,2 C 17,6 C 84 % 1023,2 hPa 0,0 mm 2,3 km/h (1 Bft) S 180 11,5 C 0,0 km/h (0 Bft)
28.06.2015 07:30 14,1 C 16,6 C 84 % 1023,2 hPa 0,0 mm 2,1 km/h (1 Bft) SW 225 11,4 C 8,0 km/h (2 Bft)
28.06.2015 07:35 14,0 C 16,0 C 84 % 1023,1 hPa 0,0 mm 2,8 km/h (1 Bft) S 180 11,3 C 6,7 km/h (2 Bft)
28.06.2015 07:40 14,4 C 18,7 C 83 % 1023,1 hPa 0,0 mm 4,7 km/h (1 Bft) SW 225 11,5 C 5,4 km/h (1 Bft)
28.06.2015 07:45 14,5 C 19,4 C 83 % 1023,1 hPa 0,0 mm 4,7 km/h (1 Bft) SW 225 11,6 C 6,2 km/h (2 Bft)
28.06.2015 07:50 14,7 C 18,7 C 82 % 1023,1 hPa 0,0 mm 3,1 km/h (1 Bft) SW 225 11,7 C 4,7 km/h (1 Bft)
28.06.2015 07:55 14,6 C 18,6 C 82 % 1023,2 hPa 0,0 mm 1,6 km/h (1 Bft) SW 225 11,6 C 0,0 km/h (0 Bft)
28.06.2015 08:00 14,3 C 17,8 C 82 % 1023,2 hPa 0,0 mm 0,8 km/h (0 Bft) S 180 11,3 C 0,0 km/h (0 Bft)
28.06.2015 08:05 14,1 C 17,2 C 82 % 1023,2 hPa 0,0 mm 0,0 km/h (0 Bft) S-SO 157 11,1 C 0,0 km/h (0 Bft)
28.06.2015 08:10 14,0 C 16,9 C 82 % 1023,2 hPa 0,0 mm 0,0 km/h (0 Bft) S-SO 157 11,0 C 0,0 km/h (0 Bft)
28.06.2015 08:15 14,1 C 17,1 C 82 % 1023,5 hPa 0,0 mm 0,0 km/h (0 Bft) S-SO 157 11,1 C 0,0 km/h (0 Bft)
28.06.2015 08:20 14,5 C 17,9 C 82 % 1023,5 hPa 0,0 mm 0,0 km/h (0 Bft) S-SO 157 11,5 C 0,0 km/h (0 Bft)
28.06.2015 08:25 14,9 C 19,1 C 82 % 1023,5 hPa 0,0 mm 0,0 km/h (0 Bft) SO 135 11,9 C 0,0 km/h (0 Bft)
28.06.2015 08:30 16,0 C 22,2 C 80 % 1023,5 hPa 0,0 mm 0,5 km/h (0 Bft) W 270 12,5 C 6,0 km/h (2 Bft)
28.06.2015 08:35 16,7 C 23,4 C 79 % 1022,9 hPa 0,0 mm 1,8 km/h (1 Bft) W 270 13,0 C 4,7 km/h (1 Bft)
28.06.2015 08:40 17,4 C 24,3 C 77 % 1022,9 hPa 0,0 mm 3,1 km/h (1 Bft) N-NW 337 13,3 C 0,0 km/h (0 Bft)
28.06.2015 08:45 17,7 C 24,8 C 76 % 1022,9 hPa 0,0 mm 2,6 km/h (1 Bft) NW 315 13,4 C 10,1 km/h (2 Bft)
28.06.2015 08:50 17,7 C 24,5 C 73 % 1022,9 hPa 0,0 mm 4,7 km/h (1 Bft) W 270 12,8 C 8,5 km/h (2 Bft)
28.06.2015 08:55 17,9 C 24,8 C 73 % 1023,3 hPa 0,0 mm 5,2 km/h (1 Bft) W 270 13,0 C 2,8 km/h (1 Bft)
28.06.2015 09:00 18,1 C 25,1 C 72 % 1023,3 hPa 0,0 mm 4,4 km/h (1 Bft) NW 315 13,0 C 4,1 km/h (1 Bft)
28.06.2015 09:05 18,1 C 25,0 C 70 % 1023,3 hPa 0,0 mm 5,2 km/h (1 Bft) W-SW 247 12,5 C 8,8 km/h (2 Bft)
28.06.2015 09:10 18,1 C 24,6 C 69 % 1023,3 hPa 0,0 mm 6,0 km/h (2 Bft) NW 315 12,3 C 6,2 km/h (2 Bft)
28.06.2015 09:15 18,3 C 24,8 C 69 % 1023,6 hPa 0,0 mm 5,2 km/h (1 Bft) W 270 12,5 C 8,8 km/h (2 Bft)
28.06.2015 09:20 18,8 C 25,7 C 69 % 1023,6 hPa 0,0 mm 3,6 km/h (1 Bft) N-NW 337 13,0 C 2,8 km/h (1 Bft)
28.06.2015 09:25 19,1 C 25,7 C 69 % 1023,6 hPa 0,0 mm 3,6 km/h (1 Bft) NW 315 13,3 C 0,0 km/h (0 Bft)
28.06.2015 09:30 19,1 C 25,9 C 68 % 1023,6 hPa 0,0 mm 4,4 km/h (1 Bft) NW 315 13,1 C 5,7 km/h (1 Bft)
28.06.2015 09:35 19,2 C 25,8 C 67 % 1023,9 hPa 0,0 mm 4,1 km/h (1 Bft) W-SW 247 12,9 C 0,0 km/h (0 Bft)
28.06.2015 09:40 19,1 C 25,5 C 66 % 1023,9 hPa 0,0 mm 5,4 km/h (1 Bft) NW 315 12,6 C 16,8 km/h (3 Bft)
28.06.2015 09:45 19,4 C 25,3 C 66 % 1023,9 hPa 0,0 mm 5,2 km/h (1 Bft) N-NO 22 12,9 C 9,3 km/h (2 Bft)
28.06.2015 09:50 19,4 C 25,7 C 65 % 1023,9 hPa 0,0 mm 4,7 km/h (1 Bft) N-NW 337 12,6 C 10,9 km/h (2 Bft)
28.06.2015 09:55 19,3 C 25,5 C 66 % 1024,2 hPa 0,0 mm 6,0 km/h (2 Bft) NW 315 12,8 C 4,7 km/h (1 Bft)
28.06.2015 10:00 19,6 C 25,0 C 66 % 1024,2 hPa 0,0 mm 6,5 km/h (2 Bft) NW 315 13,1 C 12,9 km/h (3 Bft)
28.06.2015 10:05 19,6 C 25,1 C 65 % 1024,2 hPa 0,0 mm 6,2 km/h (2 Bft) NW 315 12,8 C 13,5 km/h (3 Bft)
28.06.2015 10:10 20,0 C 25,2 C 64 % 1024,2 hPa 0,0 mm 7,5 km/h (2 Bft) W 270 13,0 C 6,2 km/h (2 Bft)
28.06.2015 10:15 20,3 C 25,9 C 64 % 1024,3 hPa 0,0 mm 6,5 km/h (2 Bft) W-SW 247 13,3 C 3,9 km/h (1 Bft)
28.06.2015 10:20 20,4 C 26,5 C 63 % 1024,3 hPa 0,0 mm 5,4 km/h (1 Bft) N-NW 337 13,1 C 20,2 km/h (4 Bft)
28.06.2015 10:25 19,7 C 25,7 C 64 % 1024,3 hPa 0,0 mm 7,3 km/h (2 Bft) N-NW 337 12,7 C 12,9 km/h (3 Bft)
28.06.2015 10:30 19,6 C 24,5 C 64 % 1024,3 hPa 0,0 mm 8,5 km/h (2 Bft) N-NW 337 12,6 C 6,0 km/h (2 Bft)
28.06.2015 10:35 19,9 C 25,6 C 64 % 1024,6 hPa 0,0 mm 5,4 km/h (1 Bft) NW 315 12,9 C 0,0 km/h (0 Bft)
28.06.2015 10:40 20,6 C 26,3 C 63 % 1024,6 hPa 0,0 mm 4,9 km/h (1 Bft) N-NW 337 13,3 C 7,3 km/h (2 Bft)
28.06.2015 10:45 20,1 C 25,7 C 62 % 1024,6 hPa 0,0 mm 6,5 km/h (2 Bft) NW 315 12,6 C 13,5 km/h (3 Bft)
28.06.2015 10:50 19,7 C 24,2 C 63 % 1024,6 hPa 0,0 mm 5,2 km/h (1 Bft) W-SW 247 12,5 C 2,8 km/h (1 Bft)
28.06.2015 10:55 19,9 C 24,2 C 63 % 1024,7 hPa 0,0 mm 5,4 km/h (1 Bft) NW 315 12,6 C 21,8 km/h (4 Bft)
28.06.2015 11:00 20,2 C 24,6 C 61 % 1024,7 hPa 0,0 mm 7,5 km/h (2 Bft) NW 315 12,4 C 7,8 km/h (2 Bft)
28.06.2015 11:05 20,4 C 25,3 C 62 % 1024,7 hPa 0,0 mm 8,5 km/h (2 Bft) W 270 12,9 C 3,9 km/h (1 Bft)
28.06.2015 11:10 20,4 C 25,0 C 61 % 1024,7 hPa 0,0 mm 8,0 km/h (2 Bft) NW 315 12,6 C 12,7 km/h (3 Bft)
28.06.2015 11:15 20,2 C 24,6 C 61 % 1024,5 hPa 0,0 mm 10,1 km/h (2 Bft) W-NW 292 12,4 C 13,2 km/h (3 Bft)
28.06.2015 11:20 19,6 C 23,3 C 61 % 1024,5 hPa 0,0 mm 8,5 km/h (2 Bft) W-NW 292 11,9 C 9,3 km/h (2 Bft)
28.06.2015 11:25 20,4 C 24,0 C 61 % 1024,5 hPa 0,0 mm 4,7 km/h (1 Bft) W-NW 292 12,6 C 8,3 km/h (2 Bft)
28.06.2015 11:30 20,7 C 25,9 C 59 % 1024,5 hPa 0,0 mm 4,9 km/h (1 Bft) NW 315 12,4 C 8,3 km/h (2 Bft)
28.06.2015 11:35 20,5 C 25,6 C 59 % 1024,5 hPa 0,0 mm 6,0 km/h (2 Bft) N 360 12,2 C 6,0 km/h (2 Bft)
28.06.2015 11:40 20,2 C 25,1 C 59 % 1024,5 hPa 0,0 mm 5,7 km/h (1 Bft) W 270 11,9 C 12,9 km/h (3 Bft)
28.06.2015 11:45 20,4 C 25,0 C 59 % 1024,5 hPa 0,0 mm 7,0 km/h (2 Bft) SW 225 12,1 C 7,5 km/h (2 Bft)
28.06.2015 11:50 20,8 C 25,5 C 57 % 1024,5 hPa 0,0 mm 7,5 km/h (2 Bft) SW 225 12,0 C 7,0 km/h (2 Bft)
28.06.2015 11:55 20,9 C 25,9 C 58 % 1024,6 hPa 0,0 mm 7,0 km/h (2 Bft) NW 315 12,3 C 6,5 km/h (2 Bft)
28.06.2015 12:00 21,2 C 25,7 C 58 % 1024,6 hPa 0,0 mm 9,8 km/h (2 Bft) NW 315 12,6 C 25,1 km/h (4 Bft)
28.06.2015 12:05 21,1 C 25,5 C 57 % 1024,6 hPa 0,0 mm 11,1 km/h (2 Bft) NW 315 12,2 C 15,3 km/h (3 Bft)
28.06.2015 12:10 20,3 C 23,1 C 57 % 1024,6 hPa 0,0 mm 10,1 km/h (2 Bft) W 270 11,5 C 9,1 km/h (2 Bft)
28.06.2015 12:15 20,7 C 23,8 C 57 % 1024,8 hPa 0,0 mm 8,8 km/h (2 Bft) N-NW 337 11,9 C 12,9 km/h (3 Bft)
28.06.2015 12:20 21,3 C 24,8 C 57 % 1024,8 hPa 0,0 mm 8,3 km/h (2 Bft) W-NW 292 12,4 C 19,7 km/h (3 Bft)
28.06.2015 12:25 21,4 C 25,2 C 55 % 1024,8 hPa 0,0 mm 9,3 km/h (2 Bft) W-NW 292 12,0 C 9,3 km/h (2 Bft)
28.06.2015 12:30 21,5 C 25,1 C 55 % 1024,8 hPa 0,0 mm 11,4 km/h (2 Bft) NW 315 12,1 C 12,9 km/h (3 Bft)
28.06.2015 12:35 21,5 C 24,9 C 55 % 1024,9 hPa 0,0 mm 11,7 km/h (2 Bft) SW 225 12,1 C 12,2 km/h (2 Bft)
28.06.2015 12:40 21,0 C 24,0 C 55 % 1024,9 hPa 0,0 mm 11,7 km/h (2 Bft) S 180 11,6 C 12,7 km/h (3 Bft)
28.06.2015 12:45 21,1 C 23,6 C 56 % 1024,9 hPa 0,0 mm 10,9 km/h (2 Bft) W-NW 292 12,0 C 13,7 km/h (3 Bft)
28.06.2015 12:50 21,4 C 24,7 C 54 % 1024,9 hPa 0,0 mm 8,5 km/h (2 Bft) W 270 11,7 C 0,0 km/h (0 Bft)
28.06.2015 12:55 21,4 C 24,8 C 54 % 1025,3 hPa 0,0 mm 9,1 km/h (2 Bft) NW 315 11,7 C 11,4 km/h (2 Bft)
28.06.2015 13:00 21,2 C 23,7 C 53 % 1025,3 hPa 0,0 mm 9,8 km/h (2 Bft) NW 315 11,2 C 9,6 km/h (2 Bft)
28.06.2015 13:05 20,9 C 22,9 C 54 % 1025,3 hPa 0,0 mm 8,8 km/h (2 Bft) W-SW 247 11,2 C 7,3 km/h (2 Bft)
28.06.2015 13:10 21,4 C 23,5 C 54 % 1025,3 hPa 0,0 mm 8,0 km/h (2 Bft) N-NW 337 11,7 C 7,8 km/h (2 Bft)
28.06.2015 13:15 22,0 C 24,1 C 53 % 1024,8 hPa 0,0 mm 8,3 km/h (2 Bft) N-NW 337 12,0 C 6,0 km/h (2 Bft)
28.06.2015 13:20 21,8 C 24,6 C 53 % 1024,8 hPa 0,0 mm 8,3 km/h (2 Bft) W 270 11,8 C 9,1 km/h (2 Bft)
28.06.2015 13:25 21,6 C 24,5 C 52 % 1024,8 hPa 0,0 mm 9,3 km/h (2 Bft) N-NW 337 11,3 C 9,8 km/h (2 Bft)
28.06.2015 13:30 21,8 C 25,3 C 54 % 1024,8 hPa 0,0 mm 8,5 km/h (2 Bft) SW 225 12,1 C 6,0 km/h (2 Bft)
28.06.2015 13:35 21,8 C 25,7 C 53 % 1024,5 hPa 0,0 mm 6,7 km/h (2 Bft) N-NW 337 11,8 C 9,8 km/h (2 Bft)
28.06.2015 13:40 21,5 C 24,7 C 54 % 1024,5 hPa 0,0 mm 6,2 km/h (2 Bft) N-NW 337 11,8 C 11,7 km/h (2 Bft)
28.06.2015 13:45 21,2 C 23,7 C 54 % 1024,5 hPa 0,0 mm 9,6 km/h (2 Bft) N-NW 337 11,5 C 17,1 km/h (3 Bft)
28.06.2015 13:50 21,0 C 23,0 C 55 % 1024,5 hPa 0,0 mm 9,8 km/h (2 Bft) N-NW 337 11,6 C 11,9 km/h (2 Bft)
28.06.2015 13:55 21,6 C 24,2 C 54 % 1024,3 hPa 0,0 mm 7,8 km/h (2 Bft) N-NW 337 11,9 C 9,3 km/h (2 Bft)
28.06.2015 14:00 21,5 C 24,6 C 54 % 1024,3 hPa 0,0 mm 6,5 km/h (2 Bft) NW 315 11,8 C 7,8 km/h (2 Bft)
28.06.2015 14:05 21,4 C 24,2 C 54 % 1024,3 hPa 0,0 mm 7,8 km/h (2 Bft) W-NW 292 11,7 C 15,5 km/h (3 Bft)
28.06.2015 14:10 22,2 C 25,1 C 54 % 1024,3 hPa 0,0 mm 9,8 km/h (2 Bft) N 360 12,4 C 10,4 km/h (2 Bft)
28.06.2015 14:15 22,3 C 25,7 C 53 % 1023,9 hPa 0,0 mm 8,8 km/h (2 Bft) O-NO 67 12,2 C 3,1 km/h (1 Bft)
28.06.2015 14:20 21,6 C 25,7 C 51 % 1023,9 hPa 0,0 mm 6,2 km/h (2 Bft) NW 315 11,0 C 3,9 km/h (1 Bft)
28.06.2015 14:25 21,1 C 24,3 C 53 % 1023,9 hPa 0,0 mm 6,0 km/h (2 Bft) NW 315 11,1 C 8,3 km/h (2 Bft)
28.06.2015 14:30 21,1 C 23,4 C 55 % 1023,9 hPa 0,0 mm 7,3 km/h (2 Bft) W 270 11,7 C 10,6 km/h (2 Bft)
28.06.2015 14:35 21,3 C 24,0 C 55 % 1023,9 hPa 0,0 mm 7,5 km/h (2 Bft) W-NW 292 11,9 C 12,2 km/h (2 Bft)
28.06.2015 14:40 22,0 C 25,0 C 54 % 1023,9 hPa 0,0 mm 8,0 km/h (2 Bft) N-NW 337 12,3 C 11,4 km/h (2 Bft)
28.06.2015 14:45 22,4 C 25,9 C 54 % 1023,9 hPa 0,0 mm 9,3 km/h (2 Bft) NW 315 12,6 C 8,0 km/h (2 Bft)
28.06.2015 14:50 21,7 C 24,6 C 53 % 1023,9 hPa 0,0 mm 10,4 km/h (2 Bft) W 270 11,7 C 15,0 km/h (3 Bft)
28.06.2015 14:55 21,7 C 24,8 C 54 % 1023,9 hPa 0,0 mm 9,6 km/h (2 Bft) NW 315 12,0 C 8,3 km/h (2 Bft)
28.06.2015 15:00 22,5 C 25,6 C 53 % 1023,9 hPa 0,0 mm 7,8 km/h (2 Bft) W-NW 292 12,4 C 5,2 km/h (1 Bft)
28.06.2015 15:05 22,9 C 26,5 C 53 % 1023,9 hPa 0,0 mm 7,3 km/h (2 Bft) NW 315 12,8 C 10,1 km/h (2 Bft)
28.06.2015 15:10 22,3 C 26,5 C 52 % 1023,9 hPa 0,0 mm 7,3 km/h (2 Bft) W-NW 292 12,0 C 9,3 km/h (2 Bft)
28.06.2015 15:15 21,9 C 25,0 C 53 % 1023,7 hPa 0,0 mm 6,0 km/h (2 Bft) O-NO 67 11,9 C 8,3 km/h (2 Bft)
28.06.2015 15:20 22,0 C 25,7 C 53 % 1023,7 hPa 0,0 mm 5,7 km/h (1 Bft) N-NW 337 12,0 C 14,0 km/h (3 Bft)
28.06.2015 15:25 21,2 C 24,5 C 53 % 1023,7 hPa 0,0 mm 4,9 km/h (1 Bft) W 270 11,2 C 5,7 km/h (1 Bft)
28.06.2015 15:30 21,1 C 23,6 C 53 % 1023,7 hPa 0,0 mm 3,6 km/h (1 Bft) W-SW 247 11,1 C 3,6 km/h (1 Bft)
28.06.2015 15:35 21,6 C 24,2 C 54 % 1023,5 hPa 0,0 mm 3,1 km/h (1 Bft) W-SW 247 11,9 C 3,1 km/h (1 Bft)
28.06.2015 15:40 22,3 C 25,9 C 52 % 1023,5 hPa 0,0 mm 3,9 km/h (1 Bft) SW 225 12,0 C 3,1 km/h (1 Bft)
28.06.2015 15:45 22,3 C 26,7 C 51 % 1023,5 hPa 0,0 mm 3,9 km/h (1 Bft) N-NW 337 11,7 C 4,9 km/h (1 Bft)
28.06.2015 15:50 21,6 C 25,4 C 52 % 1023,5 hPa 0,0 mm 5,2 km/h (1 Bft) NO 45 11,3 C 6,0 km/h (2 Bft)
28.06.2015 15:55 21,4 C 24,6 C 53 % 1023,6 hPa 0,0 mm 7,3 km/h (2 Bft) W-NW 292 11,4 C 12,9 km/h (3 Bft)
28.06.2015 16:00 21,8 C 25,1 C 52 % 1023,6 hPa 0,0 mm 9,6 km/h (2 Bft) NW 315 11,5 C 9,1 km/h (2 Bft)
28.06.2015 16:05 21,9 C 25,6 C 52 % 1023,6 hPa 0,0 mm 10,1 km/h (2 Bft) NW 315 11,6 C 10,6 km/h (2 Bft)
28.06.2015 16:10 21,6 C 26,3 C 52 % 1023,6 hPa 0,0 mm 7,3 km/h (2 Bft) W 270 11,3 C 8,3 km/h (2 Bft)
28.06.2015 16:15 21,3 C 27,2 C 52 % 1023,6 hPa 0,0 mm 5,4 km/h (1 Bft) W 270 11,0 C 11,9 km/h (2 Bft)
28.06.2015 16:20 21,2 C 27,2 C 52 % 1023,6 hPa 0,0 mm 6,2 km/h (2 Bft) NW 315 10,9 C 4,1 km/h (1 Bft)
28.06.2015 16:25 20,9 C 26,5 C 52 % 1023,6 hPa 0,0 mm 6,0 km/h (2 Bft) NO 45 10,7 C 7,3 km/h (2 Bft)
28.06.2015 16:30 21,1 C 26,1 C 53 % 1023,6 hPa 0,0 mm 5,4 km/h (1 Bft) N-NO 22 11,1 C 10,4 km/h (2 Bft)
28.06.2015 16:35 21,1 C 26,5 C 52 % 1023,3 hPa 0,0 mm 6,7 km/h (2 Bft) NW 315 10,9 C 2,8 km/h (1 Bft)
28.06.2015 16:40 21,2 C 27,5 C 52 % 1023,3 hPa 0,0 mm 5,7 km/h (1 Bft) NO 45 10,9 C 9,6 km/h (2 Bft)
28.06.2015 16:45 21,2 C 27,9 C 52 % 1023,3 hPa 0,0 mm 4,7 km/h (1 Bft) SW 225 10,9 C 0,0 km/h (0 Bft)
28.06.2015 16:50 21,2 C 28,1 C 53 % 1023,3 hPa 0,0 mm 5,7 km/h (1 Bft) NW 315 11,2 C 12,7 km/h (3 Bft)
28.06.2015 16:55 21,3 C 28,0 C 51 % 1023,2 hPa 0,0 mm 5,4 km/h (1 Bft) SO 135 10,7 C 0,0 km/h (0 Bft)
28.06.2015 17:00 21,2 C 28,5 C 51 % 1023,2 hPa 0,0 mm 5,7 km/h (1 Bft) N-NW 337 10,7 C 11,7 km/h (2 Bft)
28.06.2015 17:05 21,1 C 27,5 C 51 % 1023,2 hPa 0,0 mm 6,0 km/h (2 Bft) N-NW 337 10,6 C 5,7 km/h (1 Bft)
28.06.2015 17:10 20,9 C 25,6 C 50 % 1023,2 hPa 0,0 mm 6,7 km/h (2 Bft) N-NW 337 10,1 C 3,6 km/h (1 Bft)
28.06.2015 17:15 20,8 C 24,5 C 50 % 1023,1 hPa 0,0 mm 4,1 km/h (1 Bft) N-NW 337 10,0 C 0,0 km/h (0 Bft)
28.06.2015 17:20 20,8 C 23,6 C 51 % 1023,1 hPa 0,0 mm 2,6 km/h (1 Bft) SW 225 10,3 C 3,4 km/h (1 Bft)
28.06.2015 17:25 20,7 C 23,3 C 52 % 1023,1 hPa 0,0 mm 3,6 km/h (1 Bft) W-NW 292 10,5 C 8,3 km/h (2 Bft)
28.06.2015 17:30 20,8 C 22,9 C 51 % 1023,1 hPa 0,0 mm 8,0 km/h (2 Bft) N-NW 337 10,3 C 11,9 km/h (2 Bft)
28.06.2015 17:35 20,9 C 22,8 C 51 % 1023,1 hPa 0,0 mm 8,3 km/h (2 Bft) O-NO 67 10,4 C 3,6 km/h (1 Bft)
28.06.2015 17:40 20,9 C 22,6 C 50 % 1023,1 hPa 0,0 mm 5,4 km/h (1 Bft) N 360 10,1 C 6,2 km/h (2 Bft)
28.06.2015 17:45 20,8 C 22,5 C 51 % 1023,1 hPa 0,0 mm 4,7 km/h (1 Bft) NO 45 10,3 C 0,0 km/h (0 Bft)
28.06.2015 17:50 20,7 C 22,2 C 51 % 1023,1 hPa 0,0 mm 3,9 km/h (1 Bft) N-NW 337 10,2 C 0,0 km/h (0 Bft)
28.06.2015 17:55 20,7 C 22,1 C 51 % 1023,1 hPa 0,0 mm 1,8 km/h (1 Bft) N-NO 22 10,2 C 3,9 km/h (1 Bft)
28.06.2015 18:00 20,8 C 22,5 C 51 % 1023,1 hPa 0,0 mm 2,8 km/h (1 Bft) NW 315 10,3 C 4,7 km/h (1 Bft)
28.06.2015 18:05 20,9 C 22,8 C 51 % 1023,1 hPa 0,0 mm 5,2 km/h (1 Bft) NO 45 10,4 C 13,5 km/h (3 Bft)
28.06.2015 18:10 20,9 C 22,6 C 50 % 1023,1 hPa 0,0 mm 5,2 km/h (1 Bft) NO 45 10,1 C 4,7 km/h (1 Bft)
28.06.2015 18:15 20,9 C 22,6 C 51 % 1023,2 hPa 0,0 mm 4,9 km/h (1 Bft) N-NO 22 10,4 C 5,2 km/h (1 Bft)
28.06.2015 18:20 21,0 C 22,5 C 52 % 1023,2 hPa 0,0 mm 4,4 km/h (1 Bft) W-NW 292 10,8 C 5,7 km/h (1 Bft)
28.06.2015 18:25 21,1 C 22,6 C 52 % 1023,2 hPa 0,0 mm 5,2 km/h (1 Bft) N-NO 22 10,9 C 7,5 km/h (2 Bft)
28.06.2015 18:30 21,1 C 22,9 C 50 % 1023,2 hPa 0,0 mm 6,5 km/h (2 Bft) N-NW 337 10,3 C 6,2 km/h (2 Bft)
28.06.2015 18:35 20,9 C 23,1 C 51 % 1023,1 hPa 0,0 mm 6,5 km/h (2 Bft) N 360 10,4 C 3,4 km/h (1 Bft)
28.06.2015 18:40 20,7 C 22,9 C 52 % 1023,1 hPa 0,0 mm 4,7 km/h (1 Bft) N-NW 337 10,5 C 3,6 km/h (1 Bft)
28.06.2015 18:45 20,7 C 22,7 C 52 % 1023,1 hPa 0,0 mm 4,4 km/h (1 Bft) NW 315 10,5 C 9,8 km/h (2 Bft)
28.06.2015 18:50 20,6 C 22,2 C 52 % 1023,1 hPa 0,0 mm 3,1 km/h (1 Bft) NW 315 10,4 C 0,0 km/h (0 Bft)
28.06.2015 18:55 20,5 C 22,1 C 53 % 1023,1 hPa 0,0 mm 1,6 km/h (1 Bft) NW 315 10,6 C 0,0 km/h (0 Bft)
28.06.2015 19:00 20,6 C 22,3 C 55 % 1023,1 hPa 0,0 mm 0,0 km/h (0 Bft) N-NW 337 11,2 C 0,0 km/h (0 Bft)
28.06.2015 19:05 20,5 C 22,6 C 55 % 1023,1 hPa 0,0 mm 0,0 km/h (0 Bft) NW 315 11,1 C 0,0 km/h (0 Bft)
28.06.2015 19:10 20,5 C 23,4 C 54 % 1023,1 hPa 0,0 mm 0,0 km/h (0 Bft) NO 45 10,9 C 0,0 km/h (0 Bft)
28.06.2015 19:15 20,7 C 24,7 C 55 % 1023,2 hPa 0,0 mm 0,0 km/h (0 Bft) O-NO 67 11,3 C 0,0 km/h (0 Bft)
28.06.2015 19:20 20,7 C 26,0 C 53 % 1023,2 hPa 0,0 mm 1,0 km/h (0 Bft) N-NO 22 10,8 C 5,4 km/h (1 Bft)
28.06.2015 19:25 20,8 C 26,0 C 53 % 1023,2 hPa 0,0 mm 1,8 km/h (1 Bft) NW 315 10,9 C 0,0 km/h (0 Bft)
28.06.2015 19:30 20,5 C 25,0 C 55 % 1023,2 hPa 0,0 mm 1,8 km/h (1 Bft) O 90 11,1 C 0,0 km/h (0 Bft)
28.06.2015 19:35 20,4 C 23,9 C 56 % 1023,6 hPa 0,0 mm 0,5 km/h (0 Bft) NO 45 11,3 C 0,0 km/h (0 Bft)
28.06.2015 19:40 20,5 C 23,9 C 55 % 1023,6 hPa 0,0 mm 1,8 km/h (1 Bft) N-NO 22 11,1 C 7,8 km/h (2 Bft)
28.06.2015 19:45 20,6 C 24,1 C 55 % 1023,6 hPa 0,0 mm 3,1 km/h (1 Bft) N-NO 22 11,2 C 3,9 km/h (1 Bft)
28.06.2015 19:50 20,5 C 23,4 C 54 % 1023,6 hPa 0,0 mm 3,9 km/h (1 Bft) NO 45 10,9 C 2,6 km/h (1 Bft)
28.06.2015 19:55 20,4 C 22,6 C 54 % 1023,7 hPa 0,0 mm 4,4 km/h (1 Bft) NO 45 10,8 C 8,3 km/h (2 Bft)
28.06.2015 20:00 20,2 C 22,8 C 54 % 1023,7 hPa 0,0 mm 6,5 km/h (2 Bft) N-NO 22 10,6 C 11,9 km/h (2 Bft)
28.06.2015 20:05 20,2 C 22,9 C 54 % 1023,7 hPa 0,0 mm 6,2 km/h (2 Bft) O-NO 67 10,6 C 3,1 km/h (1 Bft)
28.06.2015 20:10 19,8 C 22,5 C 55 % 1023,7 hPa 0,0 mm 3,6 km/h (1 Bft) O-NO 67 10,5 C 3,4 km/h (1 Bft)
28.06.2015 20:15 19,4 C 21,6 C 56 % 1023,9 hPa 0,0 mm 2,3 km/h (1 Bft) O-NO 67 10,4 C 0,0 km/h (0 Bft)
28.06.2015 20:20 19,0 C 20,3 C 56 % 1023,9 hPa 0,0 mm 1,6 km/h (1 Bft) O 90 10,0 C 0,0 km/h (0 Bft)
28.06.2015 20:25 18,7 C 19,8 C 57 % 1023,9 hPa 0,0 mm 0,5 km/h (0 Bft) NO 45 10,0 C 0,0 km/h (0 Bft)
28.06.2015 20:30 18,4 C 19,0 C 57 % 1023,9 hPa 0,0 mm 0,0 km/h (0 Bft) O-SO 112 9,7 C 0,0 km/h (0 Bft)
28.06.2015 20:35 18,1 C 18,6 C 58 % 1023,8 hPa 0,0 mm 0,0 km/h (0 Bft) O 90 9,7 C 0,0 km/h (0 Bft)
28.06.2015 20:40 18,0 C 18,3 C 58 % 1023,8 hPa 0,0 mm 0,5 km/h (0 Bft) O-SO 112 9,6 C 0,0 km/h (0 Bft)
28.06.2015 20:45 17,9 C 18,1 C 59 % 1023,8 hPa 0,0 mm 0,8 km/h (0 Bft) O-SO 112 9,8 C 0,0 km/h (0 Bft)
28.06.2015 20:50 17,7 C 17,9 C 59 % 1023,8 hPa 0,0 mm 1,0 km/h (0 Bft) SO 135 9,6 C 0,0 km/h (0 Bft)
28.06.2015 20:55 17,6 C 17,6 C 60 % 1023,6 hPa 0,0 mm 1,0 km/h (0 Bft) S-SO 157 9,7 C 2,6 km/h (1 Bft)
28.06.2015 21:00 17,4 C 17,4 C 60 % 1023,6 hPa 0,0 mm 1,0 km/h (0 Bft) S-SO 157 9,6 C 0,0 km/h (0 Bft)
28.06.2015 21:05 17,2 C 17,2 C 60 % 1023,6 hPa 0,0 mm 1,3 km/h (1 Bft) S-SO 157 9,4 C 0,0 km/h (0 Bft)
28.06.2015 21:10 17,0 C 16,9 C 60 % 1023,6 hPa 0,0 mm 0,5 km/h (0 Bft) S-SO 157 9,2 C 0,0 km/h (0 Bft)
28.06.2015 21:15 16,9 C 16,8 C 61 % 1023,8 hPa 0,0 mm 0,0 km/h (0 Bft) SO 135 9,3 C 0,0 km/h (0 Bft)
28.06.2015 21:20 16,6 C 16,5 C 63 % 1023,8 hPa 0,0 mm 0,0 km/h (0 Bft) SO 135 9,5 C 0,0 km/h (0 Bft)
28.06.2015 21:25 16,5 C 16,4 C 63 % 1023,8 hPa 0,0 mm 0,0 km/h (0 Bft) SO 135 9,4 C 0,0 km/h (0 Bft)
28.06.2015 21:30 16,3 C 16,1 C 64 % 1023,8 hPa 0,0 mm 0,0 km/h (0 Bft) SO 135 9,5 C 0,0 km/h (0 Bft)
28.06.2015 21:35 16,1 C 16,0 C 65 % 1024,0 hPa 0,0 mm 0,0 km/h (0 Bft) S-SO 157 9,5 C 2,8 km/h (1 Bft)
28.06.2015 21:40 15,8 C 15,8 C 66 % 1024,0 hPa 0,0 mm 0,5 km/h (0 Bft) S-SO 157 9,5 C 0,0 km/h (0 Bft)
28.06.2015 21:45 15,5 C 15,4 C 67 % 1024,0 hPa 0,0 mm 0,5 km/h (0 Bft) SO 135 9,4 C 0,0 km/h (0 Bft)
28.06.2015 21:50 15,1 C 15,2 C 68 % 1024,0 hPa 0,0 mm 0,0 km/h (0 Bft) S 180 9,2 C 3,6 km/h (1 Bft)
28.06.2015 21:55 14,9 C 15,0 C 69 % 1024,4 hPa 0,0 mm 0,0 km/h (0 Bft) S-SO 157 9,3 C 0,0 km/h (0 Bft)
28.06.2015 22:00 14,5 C 14,5 C 70 % 1024,4 hPa 0,0 mm 0,0 km/h (0 Bft) SO 135 9,1 C 0,0 km/h (0 Bft)
28.06.2015 22:05 14,3 C 14,3 C 71 % 1024,4 hPa 0,0 mm 0,0 km/h (0 Bft) S 180 9,1 C 0,0 km/h (0 Bft)
28.06.2015 22:10 14,1 C 14,2 C 72 % 1024,4 hPa 0,0 mm 0,0 km/h (0 Bft) SO 135 9,1 C 0,0 km/h (0 Bft)
28.06.2015 22:15 14,1 C 14,3 C 73 % 1024,2 hPa 0,0 mm 0,0 km/h (0 Bft) S-SO 157 9,3 C 0,0 km/h (0 Bft)
28.06.2015 22:20 14,3 C 14,3 C 73 % 1024,2 hPa 0,0 mm 0,3 km/h (0 Bft) S 180 9,5 C 0,0 km/h (0 Bft)
28.06.2015 22:25 14,3 C 14,2 C 73 % 1024,2 hPa 0,0 mm 0,3 km/h (0 Bft) S 180 9,5 C 0,0 km/h (0 Bft)
28.06.2015 22:30 14,2 C 14,1 C 73 % 1024,2 hPa 0,0 mm 0,0 km/h (0 Bft) S-SO 157 9,4 C 0,0 km/h (0 Bft)
28.06.2015 22:35 14,1 C 14,0 C 73 % 1024,3 hPa 0,0 mm 0,0 km/h (0 Bft) S-SO 157 9,3 C 0,0 km/h (0 Bft)
28.06.2015 22:40 14,1 C 14,1 C 73 % 1024,3 hPa 0,0 mm 1,3 km/h (1 Bft) S 180 9,3 C 3,6 km/h (1 Bft)
28.06.2015 22:45 14,1 C 14,1 C 74 % 1024,3 hPa 0,0 mm 1,6 km/h (1 Bft) S 180 9,5 C 0,0 km/h (0 Bft)
28.06.2015 22:50 14,3 C 14,2 C 75 % 1024,3 hPa 0,0 mm 0,5 km/h (0 Bft) SW 225 9,9 C 0,0 km/h (0 Bft)
28.06.2015 22:55 14,3 C 14,2 C 75 % 1024,6 hPa 0,0 mm 0,3 km/h (0 Bft) SW 225 9,9 C 0,0 km/h (0 Bft)
28.06.2015 23:00 14,1 C 14,1 C 76 % 1024,6 hPa 0,0 mm 0,0 km/h (0 Bft) SW 225 9,9 C 0,0 km/h (0 Bft)
28.06.2015 23:05 14,1 C 14,0 C 76 % 1024,6 hPa 0,0 mm 0,0 km/h (0 Bft) S 180 9,9 C 0,0 km/h (0 Bft)
28.06.2015 23:10 14,2 C 14,1 C 76 % 1024,6 hPa 0,0 mm 0,0 km/h (0 Bft) S 180 10,0 C 0,0 km/h (0 Bft)
28.06.2015 23:15 14,1 C 14,0 C 75 % 1024,5 hPa 0,0 mm 0,0 km/h (0 Bft) S 180 9,7 C 0,0 km/h (0 Bft)
28.06.2015 23:20 13,9 C 13,8 C 76 % 1024,5 hPa 0,0 mm 0,0 km/h (0 Bft) S-SO 157 9,7 C 0,0 km/h (0 Bft)
28.06.2015 23:25 13,9 C 13,8 C 76 % 1024,5 hPa 0,0 mm 0,0 km/h (0 Bft) S-SO 157 9,7 C 0,0 km/h (0 Bft)
28.06.2015 23:30 13,7 C 13,6 C 76 % 1024,5 hPa 0,0 mm 0,0 km/h (0 Bft) S-SO 157 9,5 C 0,0 km/h (0 Bft)
28.06.2015 23:35 13,6 C 13,4 C 76 % 1024,1 hPa 0,0 mm 0,0 km/h (0 Bft) S-SO 157 9,4 C 0,0 km/h (0 Bft)
28.06.2015 23:40 13,3 C 13,1 C 76 % 1024,1 hPa 0,0 mm 0,0 km/h (0 Bft) S 180 9,2 C 0,0 km/h (0 Bft)
28.06.2015 23:45 13,2 C 13,0 C 76 % 1024,1 hPa 0,0 mm 0,0 km/h (0 Bft) SW 225 9,1 C 0,0 km/h (0 Bft)
28.06.2015 23:50 13,0 C 12,8 C 76 % 1024,1 hPa 0,0 mm 0,0 km/h (0 Bft) S 180 8,9 C 0,0 km/h (0 Bft)
28.06.2015 23:55 13,0 C 12,7 C 76 % 1024,2 hPa 0,0 mm 0,0 km/h (0 Bft) W-SW 247 8,9 C 0,0 km/h (0 Bft)
_ Min-Zeit 05:35 05:35 18:30 08:50 - 23:55 - - 23:55 23:55
Minimum _ 11,4 C 11,3 C 50 % 1022,9 hPa - 0,0 km/h (0 Bft) - - 8,9 C 0,0 km/h (0 Bft)
_ Max-Zeit 15:05 17:00 03:05 13:10 23:55 12:40 - - 08:45 12:00
Maximum _ 22,9 C 28,5 C 91 % 1025,3 hPa 0,0 mm 11,7 km/h
S (2 Bft)
- - 13,4 C 25,1 km/h
NW (4 Bft)
Durchschnitt _ 17,2 C 19,4 C 69 % 1023,7 hPa #0,0 mm 4,2 km/h (1 Bft) NW - 11,1 C 5,4 km/h (1 Bft)